sensor_id;sensor_type;location;lat;lon;timestamp;P1;durP1;ratioP1;P2;durP2;ratioP2
56297;SDS011;42208;6.376;-10.782;2023-04-25T00:01:17;37.00;;;13.27;;
56297;SDS011;42208;6.376;-10.782;2023-04-25T00:03:45;42.65;;;14.32;;
56297;SDS011;42208;6.376;-10.782;2023-04-25T00:06:14;78.05;;;21.60;;
56297;SDS011;42208;6.376;-10.782;2023-04-25T00:08:42;74.13;;;25.30;;
56297;SDS011;42208;6.376;-10.782;2023-04-25T00:11:10;64.25;;;25.15;;
56297;SDS011;42208;6.376;-10.782;2023-04-25T00:13:39;87.50;;;29.90;;
56297;SDS011;42208;6.376;-10.782;2023-04-25T00:16:10;69.60;;;25.65;;
56297;SDS011;42208;6.376;-10.782;2023-04-25T00:18:38;44.92;;;18.90;;
56297;SDS011;42208;6.376;-10.782;2023-04-25T00:21:06;36.05;;;14.55;;
56297;SDS011;42208;6.376;-10.782;2023-04-25T00:23:34;30.08;;;11.63;;
56297;SDS011;42208;6.376;-10.782;2023-04-25T00:26:03;34.97;;;11.45;;
56297;SDS011;42208;6.376;-10.782;2023-04-25T00:28:31;27.48;;;11.52;;
56297;SDS011;42208;6.376;-10.782;2023-04-25T00:30:59;26.83;;;11.00;;
56297;SDS011;42208;6.376;-10.782;2023-04-25T00:33:27;33.22;;;10.68;;
56297;SDS011;42208;6.376;-10.782;2023-04-25T00:35:55;30.88;;;11.40;;
56297;SDS011;42208;6.376;-10.782;2023-04-25T00:38:24;32.35;;;11.98;;
56297;SDS011;42208;6.376;-10.782;2023-04-25T00:40:52;27.55;;;10.75;;
56297;SDS011;42208;6.376;-10.782;2023-04-25T00:43:21;20.85;;;11.05;;
56297;SDS011;42208;6.376;-10.782;2023-04-25T00:45:49;32.25;;;10.40;;
56297;SDS011;42208;6.376;-10.782;2023-04-25T00:48:22;29.17;;;9.57;;
56297;SDS011;42208;6.376;-10.782;2023-04-25T00:50:54;27.27;;;10.73;;
56297;SDS011;42208;6.376;-10.782;2023-04-25T00:53:25;29.23;;;9.85;;
56297;SDS011;42208;6.376;-10.782;2023-04-25T00:55:55;22.73;;;9.73;;
56297;SDS011;42208;6.376;-10.782;2023-04-25T00:58:23;20.33;;;9.00;;
56297;SDS011;42208;6.376;-10.782;2023-04-25T01:00:52;27.02;;;9.70;;
56297;SDS011;42208;6.376;-10.782;2023-04-25T01:03:20;26.17;;;10.27;;
56297;SDS011;42208;6.376;-10.782;2023-04-25T01:05:49;36.88;;;12.23;;
56297;SDS011;42208;6.376;-10.782;2023-04-25T01:08:18;29.95;;;11.18;;
56297;SDS011;42208;6.376;-10.782;2023-04-25T01:10:48;59.70;;;21.85;;
56297;SDS011;42208;6.376;-10.782;2023-04-25T01:13:17;121.18;;;44.40;;
56297;SDS011;42208;6.376;-10.782;2023-04-25T01:15:45;101.63;;;37.20;;
56297;SDS011;42208;6.376;-10.782;2023-04-25T01:18:13;54.85;;;20.55;;
56297;SDS011;42208;6.376;-10.782;2023-04-25T01:20:42;43.05;;;16.23;;
56297;SDS011;42208;6.376;-10.782;2023-04-25T01:23:11;31.67;;;11.65;;
56297;SDS011;42208;6.376;-10.782;2023-04-25T01:25:41;29.70;;;11.07;;
56297;SDS011;42208;6.376;-10.782;2023-04-25T01:28:09;29.00;;;10.98;;
56297;SDS011;42208;6.376;-10.782;2023-04-25T01:30:38;28.25;;;10.90;;
56297;SDS011;42208;6.376;-10.782;2023-04-25T01:33:08;30.13;;;11.57;;
56297;SDS011;42208;6.376;-10.782;2023-04-25T01:35:36;27.08;;;11.90;;
56297;SDS011;42208;6.376;-10.782;2023-04-25T01:38:04;34.45;;;10.60;;
56297;SDS011;42208;6.376;-10.782;2023-04-25T01:40:33;26.42;;;11.25;;
56297;SDS011;42208;6.376;-10.782;2023-04-25T01:43:05;58.75;;;24.75;;
56297;SDS011;42208;6.376;-10.782;2023-04-25T01:45:33;43.55;;;18.67;;
56297;SDS011;42208;6.376;-10.782;2023-04-25T01:48:02;46.22;;;18.20;;
56297;SDS011;42208;6.376;-10.782;2023-04-25T01:50:31;42.10;;;14.40;;
56297;SDS011;42208;6.376;-10.782;2023-04-25T01:52:59;61.85;;;23.88;;
56297;SDS011;42208;6.376;-10.782;2023-04-25T01:55:27;54.08;;;19.45;;
56297;SDS011;42208;6.376;-10.782;2023-04-25T01:58:04;58.63;;;19.95;;
56297;SDS011;42208;6.376;-10.782;2023-04-25T02:00:55;43.80;;;16.77;;
56297;SDS011;42208;6.376;-10.782;2023-04-25T02:03:30;32.75;;;15.50;;
56297;SDS011;42208;6.376;-10.782;2023-04-25T02:06:01;40.15;;;16.90;;
56297;SDS011;42208;6.376;-10.782;2023-04-25T02:08:31;46.50;;;18.92;;
56297;SDS011;42208;6.376;-10.782;2023-04-25T02:10:59;40.30;;;18.58;;
56297;SDS011;42208;6.376;-10.782;2023-04-25T02:13:34;45.65;;;18.33;;
56297;SDS011;42208;6.376;-10.782;2023-04-25T02:16:21;43.45;;;18.15;;
56297;SDS011;42208;6.376;-10.782;2023-04-25T02:18:49;42.92;;;18.88;;
56297;SDS011;42208;6.376;-10.782;2023-04-25T02:21:18;50.72;;;17.65;;
56297;SDS011;42208;6.376;-10.782;2023-04-25T02:23:46;46.13;;;16.95;;
56297;SDS011;42208;6.376;-10.782;2023-04-25T02:26:15;35.55;;;17.35;;
56297;SDS011;42208;6.376;-10.782;2023-04-25T02:28:43;37.33;;;15.88;;
56297;SDS011;42208;6.376;-10.782;2023-04-25T02:31:12;30.92;;;15.27;;
56297;SDS011;42208;6.376;-10.782;2023-04-25T02:33:40;39.97;;;16.95;;
56297;SDS011;42208;6.376;-10.782;2023-04-25T02:36:08;33.33;;;16.27;;
56297;SDS011;42208;6.376;-10.782;2023-04-25T02:38:36;48.58;;;18.17;;
56297;SDS011;42208;6.376;-10.782;2023-04-25T02:41:05;40.45;;;17.10;;
56297;SDS011;42208;6.376;-10.782;2023-04-25T02:43:33;46.13;;;18.40;;
56297;SDS011;42208;6.376;-10.782;2023-04-25T02:46:01;33.63;;;16.02;;
56297;SDS011;42208;6.376;-10.782;2023-04-25T02:48:30;45.20;;;19.10;;
56297;SDS011;42208;6.376;-10.782;2023-04-25T02:50:59;40.65;;;17.23;;
56297;SDS011;42208;6.376;-10.782;2023-04-25T02:53:28;48.25;;;18.25;;
56297;SDS011;42208;6.376;-10.782;2023-04-25T02:55:57;57.50;;;22.77;;
56297;SDS011;42208;6.376;-10.782;2023-04-25T02:58:25;64.00;;;27.77;;
56297;SDS011;42208;6.376;-10.782;2023-04-25T03:00:53;69.80;;;25.95;;
56297;SDS011;42208;6.376;-10.782;2023-04-25T03:03:22;55.40;;;19.73;;
56297;SDS011;42208;6.376;-10.782;2023-04-25T03:05:51;36.92;;;15.00;;
56297;SDS011;42208;6.376;-10.782;2023-04-25T03:08:24;39.72;;;13.80;;
56297;SDS011;42208;6.376;-10.782;2023-04-25T03:10:52;27.80;;;12.35;;
56297;SDS011;42208;6.376;-10.782;2023-04-25T03:13:21;25.23;;;12.15;;
56297;SDS011;42208;6.376;-10.782;2023-04-25T03:15:49;29.58;;;13.00;;
56297;SDS011;42208;6.376;-10.782;2023-04-25T03:18:18;30.88;;;13.02;;
56297;SDS011;42208;6.376;-10.782;2023-04-25T03:20:46;32.42;;;12.85;;
56297;SDS011;42208;6.376;-10.782;2023-04-25T03:23:14;34.40;;;11.80;;
56297;SDS011;42208;6.376;-10.782;2023-04-25T03:25:42;34.22;;;12.32;;
56297;SDS011;42208;6.376;-10.782;2023-04-25T03:28:11;29.08;;;12.15;;
56297;SDS011;42208;6.376;-10.782;2023-04-25T03:30:39;27.60;;;12.48;;
56297;SDS011;42208;6.376;-10.782;2023-04-25T03:33:08;35.60;;;11.38;;
56297;SDS011;42208;6.376;-10.782;2023-04-25T03:35:37;27.52;;;10.60;;
56297;SDS011;42208;6.376;-10.782;2023-04-25T03:38:06;32.75;;;12.18;;
56297;SDS011;42208;6.376;-10.782;2023-04-25T03:40:38;31.42;;;12.55;;
56297;SDS011;42208;6.376;-10.782;2023-04-25T03:43:22;43.30;;;13.88;;
56297;SDS011;42208;6.376;-10.782;2023-04-25T03:45:57;37.97;;;13.27;;
56297;SDS011;42208;6.376;-10.782;2023-04-25T03:48:25;30.73;;;12.13;;
56297;SDS011;42208;6.376;-10.782;2023-04-25T03:50:54;30.02;;;12.60;;
56297;SDS011;42208;6.376;-10.782;2023-04-25T03:53:24;29.52;;;11.23;;
56297;SDS011;42208;6.376;-10.782;2023-04-25T03:58:45;26.50;;;10.60;;
56297;SDS011;42208;6.376;-10.782;2023-04-25T04:01:16;25.10;;;11.05;;
56297;SDS011;42208;6.376;-10.782;2023-04-25T04:03:44;29.70;;;11.05;;
56297;SDS011;42208;6.376;-10.782;2023-04-25T04:06:13;29.02;;;11.20;;
56297;SDS011;42208;6.376;-10.782;2023-04-25T04:08:46;26.35;;;10.50;;
56297;SDS011;42208;6.376;-10.782;2023-04-25T04:11:14;34.28;;;11.27;;
56297;SDS011;42208;6.376;-10.782;2023-04-25T04:13:42;33.47;;;11.13;;
56297;SDS011;42208;6.376;-10.782;2023-04-25T04:16:10;27.70;;;11.15;;
56297;SDS011;42208;6.376;-10.782;2023-04-25T04:18:39;31.80;;;10.98;;
56297;SDS011;42208;6.376;-10.782;2023-04-25T04:21:07;28.17;;;11.55;;
56297;SDS011;42208;6.376;-10.782;2023-04-25T04:23:38;31.98;;;11.40;;
56297;SDS011;42208;6.376;-10.782;2023-04-25T04:26:08;28.83;;;10.45;;
56297;SDS011;42208;6.376;-10.782;2023-04-25T04:28:50;29.65;;;11.98;;
56297;SDS011;42208;6.376;-10.782;2023-04-25T04:31:53;26.77;;;11.40;;
56297;SDS011;42208;6.376;-10.782;2023-04-25T04:34:23;29.27;;;11.10;;
56297;SDS011;42208;6.376;-10.782;2023-04-25T04:36:52;27.10;;;11.02;;
56297;SDS011;42208;6.376;-10.782;2023-04-25T04:39:20;28.08;;;10.93;;
56297;SDS011;42208;6.376;-10.782;2023-04-25T04:42:07;27.95;;;11.02;;
56297;SDS011;42208;6.376;-10.782;2023-04-25T04:45:01;25.45;;;11.00;;
56297;SDS011;42208;6.376;-10.782;2023-04-25T04:47:47;32.30;;;10.07;;
56297;SDS011;42208;6.376;-10.782;2023-04-25T04:50:45;32.63;;;11.02;;
56297;SDS011;42208;6.376;-10.782;2023-04-25T04:53:36;26.53;;;10.83;;
56297;SDS011;42208;6.376;-10.782;2023-04-25T04:56:31;25.40;;;10.50;;
56297;SDS011;42208;6.376;-10.782;2023-04-25T04:59:18;28.67;;;11.68;;
56297;SDS011;42208;6.376;-10.782;2023-04-25T05:02:12;32.60;;;12.23;;
56297;SDS011;42208;6.376;-10.782;2023-04-25T05:04:56;25.55;;;13.18;;
56297;SDS011;42208;6.376;-10.782;2023-04-25T05:07:43;27.27;;;12.18;;
56297;SDS011;42208;6.376;-10.782;2023-04-25T05:10:38;34.70;;;11.85;;
56297;SDS011;42208;6.376;-10.782;2023-04-25T05:13:18;34.33;;;13.35;;
56297;SDS011;42208;6.376;-10.782;2023-04-25T05:16:09;26.67;;;10.75;;
56297;SDS011;42208;6.376;-10.782;2023-04-25T05:19:07;31.40;;;11.63;;
56297;SDS011;42208;6.376;-10.782;2023-04-25T05:21:48;22.98;;;9.40;;
56297;SDS011;42208;6.376;-10.782;2023-04-25T05:24:30;25.85;;;10.15;;
56297;SDS011;42208;6.376;-10.782;2023-04-25T05:27:18;24.40;;;9.30;;
56297;SDS011;42208;6.376;-10.782;2023-04-25T05:30:18;31.23;;;10.20;;
56297;SDS011;42208;6.376;-10.782;2023-04-25T05:33:19;23.20;;;10.20;;
56297;SDS011;42208;6.376;-10.782;2023-04-25T05:35:47;31.63;;;11.20;;
56297;SDS011;42208;6.376;-10.782;2023-04-25T05:38:16;36.28;;;14.25;;
56297;SDS011;42208;6.376;-10.782;2023-04-25T05:41:07;46.83;;;18.60;;
56297;SDS011;42208;6.376;-10.782;2023-04-25T05:43:41;59.65;;;24.80;;
56297;SDS011;42208;6.376;-10.782;2023-04-25T05:46:20;63.75;;;24.65;;
56297;SDS011;42208;6.376;-10.782;2023-04-25T05:49:09;62.55;;;23.50;;
56297;SDS011;42208;6.376;-10.782;2023-04-25T05:51:52;53.25;;;18.73;;
56297;SDS011;42208;6.376;-10.782;2023-04-25T05:54:46;54.15;;;18.48;;
56297;SDS011;42208;6.376;-10.782;2023-04-25T05:57:22;48.17;;;18.08;;
56297;SDS011;42208;6.376;-10.782;2023-04-25T05:59:52;46.75;;;17.63;;
56297;SDS011;42208;6.376;-10.782;2023-04-25T06:02:25;46.00;;;17.13;;
56297;SDS011;42208;6.376;-10.782;2023-04-25T06:04:53;43.50;;;14.82;;
56297;SDS011;42208;6.376;-10.782;2023-04-25T06:07:22;39.90;;;15.57;;
56297;SDS011;42208;6.376;-10.782;2023-04-25T06:09:51;46.22;;;13.82;;
56297;SDS011;42208;6.376;-10.782;2023-04-25T06:12:19;44.83;;;14.65;;
56297;SDS011;42208;6.376;-10.782;2023-04-25T06:14:49;36.92;;;14.45;;
56297;SDS011;42208;6.376;-10.782;2023-04-25T06:17:17;40.53;;;14.27;;
56297;SDS011;42208;6.376;-10.782;2023-04-25T06:19:48;40.17;;;15.77;;
56297;SDS011;42208;6.376;-10.782;2023-04-25T06:22:17;35.20;;;15.20;;
56297;SDS011;42208;6.376;-10.782;2023-04-25T06:24:46;32.42;;;13.57;;
56297;SDS011;42208;6.376;-10.782;2023-04-25T06:27:14;36.13;;;14.02;;
56297;SDS011;42208;6.376;-10.782;2023-04-25T06:29:43;38.00;;;13.73;;
56297;SDS011;42208;6.376;-10.782;2023-04-25T06:32:11;37.30;;;13.40;;
56297;SDS011;42208;6.376;-10.782;2023-04-25T06:34:39;33.53;;;13.35;;
56297;SDS011;42208;6.376;-10.782;2023-04-25T06:37:09;33.08;;;13.43;;
56297;SDS011;42208;6.376;-10.782;2023-04-25T06:39:37;37.30;;;14.30;;
56297;SDS011;42208;6.376;-10.782;2023-04-25T06:42:07;32.72;;;13.23;;
56297;SDS011;42208;6.376;-10.782;2023-04-25T06:45:07;26.52;;;11.68;;
56297;SDS011;42208;6.376;-10.782;2023-04-25T06:47:36;38.40;;;12.85;;
56297;SDS011;42208;6.376;-10.782;2023-04-25T06:50:04;30.33;;;11.80;;
56297;SDS011;42208;6.376;-10.782;2023-04-25T06:52:35;32.35;;;14.00;;
56297;SDS011;42208;6.376;-10.782;2023-04-25T06:55:03;43.28;;;13.27;;
56297;SDS011;42208;6.376;-10.782;2023-04-25T06:57:53;39.95;;;13.23;;
56297;SDS011;42208;6.376;-10.782;2023-04-25T07:00:42;29.02;;;13.77;;
56297;SDS011;42208;6.376;-10.782;2023-04-25T07:03:10;35.60;;;13.02;;
56297;SDS011;42208;6.376;-10.782;2023-04-25T07:05:39;39.42;;;14.25;;
56297;SDS011;42208;6.376;-10.782;2023-04-25T07:08:07;31.25;;;14.00;;
56297;SDS011;42208;6.376;-10.782;2023-04-25T07:10:36;41.13;;;13.30;;
56297;SDS011;42208;6.376;-10.782;2023-04-25T07:13:05;32.80;;;13.77;;
56297;SDS011;42208;6.376;-10.782;2023-04-25T07:15:34;32.30;;;11.85;;
56297;SDS011;42208;6.376;-10.782;2023-04-25T07:18:02;31.42;;;12.82;;
56297;SDS011;42208;6.376;-10.782;2023-04-25T07:20:31;31.30;;;14.30;;
56297;SDS011;42208;6.376;-10.782;2023-04-25T07:23:01;39.90;;;15.88;;
56297;SDS011;42208;6.376;-10.782;2023-04-25T07:25:29;26.50;;;13.23;;
56297;SDS011;42208;6.376;-10.782;2023-04-25T07:27:57;26.63;;;12.77;;
56297;SDS011;42208;6.376;-10.782;2023-04-25T07:30:26;32.28;;;12.18;;
56297;SDS011;42208;6.376;-10.782;2023-04-25T07:32:54;30.02;;;12.57;;
56297;SDS011;42208;6.376;-10.782;2023-04-25T07:35:23;39.33;;;13.80;;
56297;SDS011;42208;6.376;-10.782;2023-04-25T07:37:51;42.53;;;14.98;;
56297;SDS011;42208;6.376;-10.782;2023-04-25T07:40:20;34.17;;;13.52;;
56297;SDS011;42208;6.376;-10.782;2023-04-25T07:42:52;26.90;;;12.80;;
56297;SDS011;42208;6.376;-10.782;2023-04-25T07:45:31;29.42;;;12.57;;
56297;SDS011;42208;6.376;-10.782;2023-04-25T07:48:01;22.92;;;12.10;;
56297;SDS011;42208;6.376;-10.782;2023-04-25T07:50:32;29.10;;;12.77;;
56297;SDS011;42208;6.376;-10.782;2023-04-25T07:53:00;31.35;;;12.07;;
56297;SDS011;42208;6.376;-10.782;2023-04-25T07:55:36;32.20;;;12.23;;
56297;SDS011;42208;6.376;-10.782;2023-04-25T07:58:10;21.95;;;10.88;;
56297;SDS011;42208;6.376;-10.782;2023-04-25T08:00:42;33.75;;;11.68;;
56297;SDS011;42208;6.376;-10.782;2023-04-25T08:03:28;24.63;;;11.30;;
56297;SDS011;42208;6.376;-10.782;2023-04-25T08:05:58;36.83;;;11.73;;
56297;SDS011;42208;6.376;-10.782;2023-04-25T08:08:33;27.35;;;11.85;;
56297;SDS011;42208;6.376;-10.782;2023-04-25T08:11:02;21.17;;;11.98;;
56297;SDS011;42208;6.376;-10.782;2023-04-25T08:13:31;27.50;;;10.90;;
56297;SDS011;42208;6.376;-10.782;2023-04-25T08:15:59;25.73;;;11.98;;
56297;SDS011;42208;6.376;-10.782;2023-04-25T08:18:28;30.70;;;10.82;;
56297;SDS011;42208;6.376;-10.782;2023-04-25T08:20:57;28.13;;;11.45;;
56297;SDS011;42208;6.376;-10.782;2023-04-25T08:23:25;22.35;;;10.05;;
56297;SDS011;42208;6.376;-10.782;2023-04-25T08:26:02;24.75;;;9.85;;
56297;SDS011;42208;6.376;-10.782;2023-04-25T08:28:33;34.20;;;11.23;;
56297;SDS011;42208;6.376;-10.782;2023-04-25T08:31:01;33.33;;;10.82;;
56297;SDS011;42208;6.376;-10.782;2023-04-25T08:33:38;29.83;;;11.60;;
56297;SDS011;42208;6.376;-10.782;2023-04-25T08:36:20;27.85;;;11.10;;
56297;SDS011;42208;6.376;-10.782;2023-04-25T08:39:13;27.10;;;11.23;;
56297;SDS011;42208;6.376;-10.782;2023-04-25T08:41:56;34.42;;;12.88;;
56297;SDS011;42208;6.376;-10.782;2023-04-25T08:44:24;26.92;;;12.95;;
56297;SDS011;42208;6.376;-10.782;2023-04-25T08:46:53;21.70;;;11.35;;
56297;SDS011;42208;6.376;-10.782;2023-04-25T08:49:31;32.90;;;11.40;;
56297;SDS011;42208;6.376;-10.782;2023-04-25T08:52:03;28.60;;;11.35;;
56297;SDS011;42208;6.376;-10.782;2023-04-25T08:54:32;36.72;;;11.68;;
56297;SDS011;42208;6.376;-10.782;2023-04-25T08:57:05;28.85;;;10.63;;
56297;SDS011;42208;6.376;-10.782;2023-04-25T08:59:34;28.40;;;11.05;;
56297;SDS011;42208;6.376;-10.782;2023-04-25T09:02:05;28.20;;;11.15;;
56297;SDS011;42208;6.376;-10.782;2023-04-25T09:04:34;28.52;;;13.25;;
56297;SDS011;42208;6.376;-10.782;2023-04-25T09:07:03;23.27;;;12.65;;
56297;SDS011;42208;6.376;-10.782;2023-04-25T09:09:32;25.02;;;11.55;;
56297;SDS011;42208;6.376;-10.782;2023-04-25T09:12:01;28.70;;;11.52;;
56297;SDS011;42208;6.376;-10.782;2023-04-25T09:14:29;33.85;;;11.82;;
56297;SDS011;42208;6.376;-10.782;2023-04-25T09:17:04;25.13;;;11.60;;
56297;SDS011;42208;6.376;-10.782;2023-04-25T09:19:51;20.10;;;8.85;;
56297;SDS011;42208;6.376;-10.782;2023-04-25T09:22:24;18.83;;;9.02;;
56297;SDS011;42208;6.376;-10.782;2023-04-25T09:24:53;25.88;;;10.60;;
56297;SDS011;42208;6.376;-10.782;2023-04-25T09:30:01;32.67;;;10.57;;
56297;SDS011;42208;6.376;-10.782;2023-04-25T09:32:48;24.63;;;10.20;;
56297;SDS011;42208;6.376;-10.782;2023-04-25T09:35:23;17.90;;;10.25;;
56297;SDS011;42208;6.376;-10.782;2023-04-25T09:37:54;22.73;;;9.13;;
56297;SDS011;42208;6.376;-10.782;2023-04-25T09:40:46;26.63;;;9.25;;
56297;SDS011;42208;6.376;-10.782;2023-04-25T09:43:24;27.35;;;9.13;;
56297;SDS011;42208;6.376;-10.782;2023-04-25T09:45:54;21.30;;;8.10;;
56297;SDS011;42208;6.376;-10.782;2023-04-25T09:48:26;23.92;;;8.23;;
56297;SDS011;42208;6.376;-10.782;2023-04-25T09:53:38;27.33;;;8.50;;
56297;SDS011;42208;6.376;-10.782;2023-04-25T09:56:27;26.73;;;9.98;;
56297;SDS011;42208;6.376;-10.782;2023-04-25T09:59:05;18.88;;;6.95;;
56297;SDS011;42208;6.376;-10.782;2023-04-25T10:01:37;27.75;;;8.40;;
56297;SDS011;42208;6.376;-10.782;2023-04-25T10:04:13;22.92;;;8.60;;
56297;SDS011;42208;6.376;-10.782;2023-04-25T10:07:03;12.45;;;5.10;;
56297;SDS011;42208;6.376;-10.782;2023-04-25T10:09:36;11.38;;;4.88;;
56297;SDS011;42208;6.376;-10.782;2023-04-25T10:12:06;14.57;;;5.00;;
56297;SDS011;42208;6.376;-10.782;2023-04-25T10:14:35;14.57;;;5.38;;
56297;SDS011;42208;6.376;-10.782;2023-04-25T10:17:03;11.95;;;4.40;;
56297;SDS011;42208;6.376;-10.782;2023-04-25T10:19:31;17.13;;;4.55;;
56297;SDS011;42208;6.376;-10.782;2023-04-25T10:24:35;13.10;;;4.45;;
56297;SDS011;42208;6.376;-10.782;2023-04-25T10:27:05;17.30;;;7.10;;
56297;SDS011;42208;6.376;-10.782;2023-04-25T10:29:35;15.57;;;6.38;;
56297;SDS011;42208;6.376;-10.782;2023-04-25T10:32:03;17.08;;;7.03;;
56297;SDS011;42208;6.376;-10.782;2023-04-25T10:34:41;18.48;;;7.20;;
56297;SDS011;42208;6.376;-10.782;2023-04-25T10:37:11;20.95;;;6.47;;
56297;SDS011;42208;6.376;-10.782;2023-04-25T10:39:40;17.65;;;7.13;;
56297;SDS011;42208;6.376;-10.782;2023-04-25T10:42:09;25.23;;;7.20;;
56297;SDS011;42208;6.376;-10.782;2023-04-25T10:44:38;16.73;;;6.15;;
56297;SDS011;42208;6.376;-10.782;2023-04-25T10:47:07;15.00;;;6.20;;
56297;SDS011;42208;6.376;-10.782;2023-04-25T10:49:37;25.27;;;6.00;;
56297;SDS011;42208;6.376;-10.782;2023-04-25T10:52:19;17.50;;;5.93;;
56297;SDS011;42208;6.376;-10.782;2023-04-25T10:54:54;10.80;;;5.90;;
56297;SDS011;42208;6.376;-10.782;2023-04-25T10:57:27;16.30;;;6.80;;
56297;SDS011;42208;6.376;-10.782;2023-04-25T11:00:15;13.73;;;5.20;;
56297;SDS011;42208;6.376;-10.782;2023-04-25T11:02:51;15.50;;;6.57;;
56297;SDS011;42208;6.376;-10.782;2023-04-25T11:08:13;11.52;;;5.65;;
56297;SDS011;42208;6.376;-10.782;2023-04-25T11:10:47;16.50;;;6.93;;
56297;SDS011;42208;6.376;-10.782;2023-04-25T11:13:20;12.88;;;5.93;;
56297;SDS011;42208;6.376;-10.782;2023-04-25T11:15:51;17.85;;;6.20;;
56297;SDS011;42208;6.376;-10.782;2023-04-25T11:18:40;18.65;;;6.15;;
56297;SDS011;42208;6.376;-10.782;2023-04-25T11:21:09;15.95;;;5.13;;
56297;SDS011;42208;6.376;-10.782;2023-04-25T11:23:38;20.17;;;6.00;;
56297;SDS011;42208;6.376;-10.782;2023-04-25T11:26:07;14.70;;;5.10;;
56297;SDS011;42208;6.376;-10.782;2023-04-25T11:28:35;14.63;;;5.25;;
56297;SDS011;42208;6.376;-10.782;2023-04-25T11:31:04;18.10;;;6.72;;
56297;SDS011;42208;6.376;-10.782;2023-04-25T11:33:32;18.08;;;6.30;;
56297;SDS011;42208;6.376;-10.782;2023-04-25T11:36:00;15.00;;;5.55;;
56297;SDS011;42208;6.376;-10.782;2023-04-25T11:38:29;20.58;;;4.78;;
56297;SDS011;42208;6.376;-10.782;2023-04-25T11:40:57;16.45;;;4.50;;
56297;SDS011;42208;6.376;-10.782;2023-04-25T11:43:25;10.18;;;3.75;;
56297;SDS011;42208;6.376;-10.782;2023-04-25T11:45:54;13.95;;;2.78;;
56297;SDS011;42208;6.376;-10.782;2023-04-25T11:48:22;8.27;;;2.65;;
56297;SDS011;42208;6.376;-10.782;2023-04-25T11:50:53;11.07;;;2.03;;
56297;SDS011;42208;6.376;-10.782;2023-04-25T11:53:21;14.02;;;2.95;;
56297;SDS011;42208;6.376;-10.782;2023-04-25T11:55:49;10.73;;;2.47;;
56297;SDS011;42208;6.376;-10.782;2023-04-25T11:58:18;6.78;;;2.30;;
56297;SDS011;42208;6.376;-10.782;2023-04-25T12:00:46;6.90;;;1.98;;
56297;SDS011;42208;6.376;-10.782;2023-04-25T12:03:17;9.57;;;2.72;;
56297;SDS011;42208;6.376;-10.782;2023-04-25T12:05:46;10.52;;;4.35;;
56297;SDS011;42208;6.376;-10.782;2023-04-25T12:08:15;16.45;;;5.22;;
56297;SDS011;42208;6.376;-10.782;2023-04-25T12:10:44;16.48;;;5.65;;
56297;SDS011;42208;6.376;-10.782;2023-04-25T12:13:23;12.90;;;4.07;;
56297;SDS011;42208;6.376;-10.782;2023-04-25T12:15:55;10.20;;;3.95;;
56297;SDS011;42208;6.376;-10.782;2023-04-25T12:18:24;18.98;;;4.90;;
56297;SDS011;42208;6.376;-10.782;2023-04-25T12:20:53;13.85;;;3.88;;
56297;SDS011;42208;6.376;-10.782;2023-04-25T12:23:25;11.10;;;4.63;;
56297;SDS011;42208;6.376;-10.782;2023-04-25T12:25:54;22.83;;;10.43;;
56297;SDS011;42208;6.376;-10.782;2023-04-25T12:28:24;19.60;;;6.22;;
56297;SDS011;42208;6.376;-10.782;2023-04-25T12:33:25;17.40;;;4.25;;
56297;SDS011;42208;6.376;-10.782;2023-04-25T12:35:54;29.17;;;7.63;;
56297;SDS011;42208;6.376;-10.782;2023-04-25T12:38:24;17.85;;;5.57;;
56297;SDS011;42208;6.376;-10.782;2023-04-25T12:40:53;21.25;;;6.93;;
56297;SDS011;42208;6.376;-10.782;2023-04-25T12:43:22;16.70;;;6.45;;
56297;SDS011;42208;6.376;-10.782;2023-04-25T12:45:51;25.90;;;5.93;;
56297;SDS011;42208;6.376;-10.782;2023-04-25T12:48:20;16.05;;;5.93;;
56297;SDS011;42208;6.376;-10.782;2023-04-25T12:50:50;18.35;;;5.75;;
56297;SDS011;42208;6.376;-10.782;2023-04-25T12:53:19;18.60;;;5.47;;
56297;SDS011;42208;6.376;-10.782;2023-04-25T12:55:48;26.13;;;7.15;;
56297;SDS011;42208;6.376;-10.782;2023-04-25T12:58:18;21.02;;;7.38;;
56297;SDS011;42208;6.376;-10.782;2023-04-25T13:00:46;12.85;;;4.53;;
56297;SDS011;42208;6.376;-10.782;2023-04-25T13:03:15;7.78;;;2.50;;
56297;SDS011;42208;6.376;-10.782;2023-04-25T13:05:43;18.45;;;5.90;;
56297;SDS011;42208;6.376;-10.782;2023-04-25T13:08:12;22.27;;;5.35;;
56297;SDS011;42208;6.376;-10.782;2023-04-25T13:10:40;32.00;;;14.02;;
56297;SDS011;42208;6.376;-10.782;2023-04-25T13:13:08;48.20;;;21.30;;
56297;SDS011;42208;6.376;-10.782;2023-04-25T13:15:37;23.45;;;9.77;;
56297;SDS011;42208;6.376;-10.782;2023-04-25T13:18:05;22.02;;;5.50;;
56297;SDS011;42208;6.376;-10.782;2023-04-25T13:20:33;20.85;;;7.22;;
56297;SDS011;42208;6.376;-10.782;2023-04-25T13:23:02;17.55;;;3.72;;
56297;SDS011;42208;6.376;-10.782;2023-04-25T13:25:30;34.17;;;14.75;;
56297;SDS011;42208;6.376;-10.782;2023-04-25T13:27:59;22.05;;;5.70;;
56297;SDS011;42208;6.376;-10.782;2023-04-25T13:30:27;19.55;;;5.13;;
56297;SDS011;42208;6.376;-10.782;2023-04-25T13:32:55;14.43;;;3.60;;
56297;SDS011;42208;6.376;-10.782;2023-04-25T13:35:24;18.10;;;4.70;;
56297;SDS011;42208;6.376;-10.782;2023-04-25T13:37:52;14.38;;;5.05;;
56297;SDS011;42208;6.376;-10.782;2023-04-25T13:40:21;22.88;;;5.28;;
56297;SDS011;42208;6.376;-10.782;2023-04-25T13:42:51;17.73;;;4.50;;
56297;SDS011;42208;6.376;-10.782;2023-04-25T13:45:21;21.50;;;6.68;;
56297;SDS011;42208;6.376;-10.782;2023-04-25T13:47:49;13.40;;;4.00;;
56297;SDS011;42208;6.376;-10.782;2023-04-25T13:50:19;16.27;;;3.20;;
56297;SDS011;42208;6.376;-10.782;2023-04-25T13:52:47;21.88;;;3.72;;
56297;SDS011;42208;6.376;-10.782;2023-04-25T13:55:16;10.10;;;2.78;;
56297;SDS011;42208;6.376;-10.782;2023-04-25T13:57:44;7.20;;;2.70;;
56297;SDS011;42208;6.376;-10.782;2023-04-25T14:00:12;18.17;;;6.10;;
56297;SDS011;42208;6.376;-10.782;2023-04-25T14:02:41;19.10;;;3.90;;
56297;SDS011;42208;6.376;-10.782;2023-04-25T14:05:10;15.52;;;3.28;;
56297;SDS011;42208;6.376;-10.782;2023-04-25T14:07:38;27.67;;;9.55;;
56297;SDS011;42208;6.376;-10.782;2023-04-25T14:10:06;17.58;;;4.88;;
56297;SDS011;42208;6.376;-10.782;2023-04-25T14:12:37;20.30;;;7.43;;
56297;SDS011;42208;6.376;-10.782;2023-04-25T14:15:06;14.70;;;3.95;;
56297;SDS011;42208;6.376;-10.782;2023-04-25T14:17:34;11.13;;;3.45;;
56297;SDS011;42208;6.376;-10.782;2023-04-25T14:20:03;28.77;;;8.65;;
56297;SDS011;42208;6.376;-10.782;2023-04-25T14:22:32;17.73;;;4.22;;
56297;SDS011;42208;6.376;-10.782;2023-04-25T14:25:00;40.78;;;10.82;;
56297;SDS011;42208;6.376;-10.782;2023-04-25T14:27:30;23.02;;;7.63;;
56297;SDS011;42208;6.376;-10.782;2023-04-25T14:29:58;16.55;;;4.20;;
56297;SDS011;42208;6.376;-10.782;2023-04-25T14:32:27;23.13;;;6.03;;
56297;SDS011;42208;6.376;-10.782;2023-04-25T14:34:55;19.98;;;5.88;;
56297;SDS011;42208;6.376;-10.782;2023-04-25T14:37:23;15.10;;;7.03;;
56297;SDS011;42208;6.376;-10.782;2023-04-25T14:39:51;44.58;;;13.27;;
56297;SDS011;42208;6.376;-10.782;2023-04-25T14:42:20;19.60;;;5.40;;
56297;SDS011;42208;6.376;-10.782;2023-04-25T14:44:48;25.75;;;4.78;;
56297;SDS011;42208;6.376;-10.782;2023-04-25T14:47:16;22.08;;;6.07;;
56297;SDS011;42208;6.376;-10.782;2023-04-25T14:49:45;16.77;;;3.58;;
56297;SDS011;42208;6.376;-10.782;2023-04-25T14:52:13;15.32;;;3.53;;
56297;SDS011;42208;6.376;-10.782;2023-04-25T14:54:41;21.90;;;6.47;;
56297;SDS011;42208;6.376;-10.782;2023-04-25T14:57:09;34.78;;;9.70;;